Time;durP1;ratioP1;P1;durP2;ratioP2;P2;SDS_P1;SDS_P2;PMS_P1;PMS_P2;Temp;Humidity;BMP_temperature;BMP_pressure;BME280_temperature;BME280_humidity;BME280_pressure;Samples;Min_cycle;Max_cycle;Signal;HPM_P1;HPM_P2
2022/12/27 00:00:22;;;;;;;6.00;2.80;;;2.20;99.00;;;;;;5006213;28;20195;-71
2022/12/27 00:02:48;;;;;;;10.90;2.00;;;2.20;98.80;;;;;;5005698;28;20203;-71
2022/12/27 00:05:14;;;;;;;10.57;3.07;;;2.20;98.60;;;;;;4997135;28;20525;-72
2022/12/27 00:07:41;;;;;;;9.33;3.03;;;2.10;98.70;;;;;;5013665;28;20664;-71
2022/12/27 00:10:08;;;;;;;6.53;1.90;;;2.10;98.90;;;;;;5000709;28;20777;-71
2022/12/27 00:12:34;;;;;;;4.50;2.60;;;2.00;99.10;;;;;;5001724;28;20446;-71
2022/12/27 00:14:59;;;;;;;12.20;3.00;;;2.00;99.10;;;;;;5009978;28;20418;-72
2022/12/27 00:17:26;;;;;;;12.10;3.43;;;2.00;99.20;;;;;;4996346;28;20857;-71
2022/12/27 00:19:51;;;;;;;8.47;1.97;;;2.10;99.40;;;;;;5006849;28;20572;-73
2022/12/27 00:22:17;;;;;;;6.20;2.20;;;2.10;99.40;;;;;;5015405;28;20469;-71
2022/12/27 00:24:43;;;;;;;9.00;2.63;;;2.10;99.40;;;;;;4991739;28;20170;-71
2022/12/27 00:27:09;;;;;;;8.13;2.60;;;2.20;99.80;;;;;;5025100;28;20480;-72
2022/12/27 00:29:34;;;;;;;7.93;2.10;;;2.20;99.50;;;;;;5003244;28;20175;-71
2022/12/27 00:32:00;;;;;;;8.63;2.70;;;2.40;99.50;;;;;;5008989;28;20650;-71
2022/12/27 00:34:26;;;;;;;7.70;2.70;;;2.50;99.30;;;;;;4995113;28;20558;-72
2022/12/27 00:36:51;;;;;;;9.73;2.57;;;2.50;99.00;;;;;;5008817;28;20179;-72
2022/12/27 00:39:17;;;;;;;8.00;2.30;;;2.60;98.80;;;;;;4999774;28;20545;-71
2022/12/27 00:41:44;;;;;;;8.60;2.60;;;2.60;98.70;;;;;;5010598;28;20202;-72
2022/12/27 00:44:10;;;;;;;10.90;2.47;;;2.60;98.80;;;;;;5015177;28;20973;-71
2022/12/27 00:46:36;;;;;;;11.17;2.60;;;2.60;98.70;;;;;;5011417;28;20170;-71
2022/12/27 00:49:01;;;;;;;9.30;2.40;;;2.70;98.50;;;;;;5021370;28;20182;-71
2022/12/27 00:51:27;;;;;;;4.90;2.80;;;2.70;98.40;;;;;;5012350;23;20227;-78
2022/12/27 00:53:53;;;;;;;8.23;2.33;;;2.80;98.40;;;;;;4988789;28;20175;-77
2022/12/27 00:56:29;;;;;;;9.73;3.10;;;2.70;98.20;;;;;;4993834;28;20182;-78
2022/12/27 00:58:57;;;;;;;5.67;3.03;;;2.70;98.10;;;;;;4993409;28;20435;-77
2022/12/27 01:01:26;;;;;;;8.97;3.60;;;2.60;98.30;;;;;;4974606;28;20459;-78
2022/12/27 01:03:52;;;;;;;7.47;3.13;;;2.60;98.20;;;;;;4971742;28;20427;-77
2022/12/27 01:06:20;;;;;;;11.93;3.20;;;2.50;98.20;;;;;;4992270;28;20960;-78
2022/12/27 01:08:47;;;;;;;10.97;3.33;;;2.50;98.20;;;;;;4990081;28;20439;-79
2022/12/27 01:11:14;;;;;;;8.90;2.83;;;2.50;98.20;;;;;;4990535;28;20462;-81
2022/12/27 01:13:40;;;;;;;10.10;3.23;;;2.40;98.30;;;;;;4986372;28;20526;-79
2022/12/27 01:16:20;;;;;;;7.97;2.90;;;2.30;98.60;;;;;;4984300;28;20442;-79
2022/12/27 01:18:47;;;;;;;12.10;3.67;;;2.30;98.80;;;;;;4991531;28;20435;-80
2022/12/27 01:21:15;;;;;;;6.43;2.40;;;2.20;99.00;;;;;;4974613;28;20463;-80
2022/12/27 01:23:40;;;;;;;6.83;2.60;;;2.20;99.10;;;;;;4986453;28;20513;-80
2022/12/27 01:26:10;;;;;;;6.07;2.70;;;2.20;99.20;;;;;;4992043;28;20509;-79
2022/12/27 01:28:36;;;;;;;8.57;2.53;;;2.20;99.20;;;;;;4988511;28;20610;-77
2022/12/27 01:31:06;;;;;;;7.00;3.03;;;2.10;99.30;;;;;;4983843;28;20527;-79
2022/12/27 01:33:31;;;;;;;11.80;2.57;;;2.20;99.40;;;;;;4989383;28;20184;-79
2022/12/27 01:35:57;;;;;;;12.90;4.37;;;2.20;99.40;;;;;;4988923;28;20861;-79
2022/12/27 01:38:22;;;;;;;6.63;3.40;;;2.20;99.30;;;;;;4989392;28;20176;-79
2022/12/27 01:40:48;;;;;;;10.70;3.67;;;2.20;99.30;;;;;;4989971;28;20187;-79
2022/12/27 01:43:17;;;;;;;14.10;3.17;;;2.20;99.60;;;;;;4987464;28;20597;-79
2022/12/27 01:45:45;;;;;;;13.90;3.40;;;2.30;99.90;;;;;;4975025;28;20184;-79
2022/12/27 01:48:18;;;;;;;7.20;2.40;;;2.40;99.60;;;;;;4985505;28;20430;-79
2022/12/27 01:50:58;;;;;;;9.40;3.80;;;2.50;99.40;;;;;;4985784;28;20498;-76
2022/12/27 01:53:34;;;;;;;9.37;3.03;;;2.60;99.20;;;;;;4988416;28;20442;-80
2022/12/27 01:56:04;;;;;;;5.17;3.30;;;2.60;98.90;;;;;;4992976;28;20481;-79
2022/12/27 01:58:37;;;;;;;8.00;3.27;;;2.60;98.80;;;;;;4967309;28;20431;-77
2022/12/27 02:01:05;;;;;;;7.70;3.80;;;2.50;98.80;;;;;;4982464;28;20463;-76
2022/12/27 02:03:33;;;;;;;7.93;4.43;;;2.50;99.00;;;;;;4985314;28;20607;-78
2022/12/27 02:06:01;;;;;;;9.47;2.83;;;2.40;99.10;;;;;;4986253;28;20510;-77
2022/12/27 02:08:37;;;;;;;9.47;3.93;;;2.30;99.20;;;;;;4985861;28;20435;-77
2022/12/27 02:11:05;;;;;;;13.17;4.13;;;2.40;99.50;;;;;;4969855;28;20581;-79
2022/12/27 02:13:35;;;;;;;12.67;5.37;;;2.30;99.60;;;;;;4986808;28;20468;-77
2022/12/27 02:16:08;;;;;;;13.03;4.70;;;2.30;99.50;;;;;;4987736;28;20474;-78
2022/12/27 02:18:34;;;;;;;11.47;4.00;;;2.20;99.80;;;;;;4984184;28;20439;-77
2022/12/27 02:21:28;;;;;;;11.83;4.53;;;2.20;99.70;;;;;;4982968;28;20831;-78
2022/12/27 02:24:40;;;;;;;13.63;5.40;;;2.20;99.90;;;;;;4977725;28;20187;-78
2022/12/27 02:27:40;;;;;;;16.20;5.30;;;2.20;99.90;;;;;;4984132;28;20858;-77
2022/12/27 02:30:08;;;;;;;9.97;5.03;;;2.20;99.90;;;;;;4985046;28;20497;-78
2022/12/27 02:32:47;;;;;;;8.67;4.23;;;2.10;99.90;;;;;;4987539;28;20438;-77
2022/12/27 02:35:25;;;;;;;6.90;4.07;;;2.10;99.90;;;;;;4987608;28;20498;-78
2022/12/27 02:38:27;;;;;;;10.47;6.63;;;2.20;99.90;;;;;;4981420;28;20426;-78
2022/12/27 02:55:35;;;;;;;7.97;5.00;;;2.00;99.90;;;;;;4988905;28;20518;-79
2022/12/27 02:58:43;;;;;;;13.43;5.40;;;2.10;99.90;;;;;;4987192;28;20508;-77
2022/12/27 03:04:31;;;;;;;11.70;4.67;;;2.00;99.90;;;;;;4990456;28;20451;-77
2022/12/27 03:07:14;;;;;;;15.80;6.03;;;2.00;99.90;;;;;;4989877;28;20555;-76
2022/12/27 03:16:08;;;;;;;14.20;4.87;;;1.90;99.90;;;;;;4986670;28;20573;-79
2022/12/27 03:19:01;;;;;;;12.10;4.70;;;1.90;99.90;;;;;;4987463;28;20956;-78
2022/12/27 03:27:08;;;;;;;13.63;6.60;;;2.10;99.90;;;;;;4991676;28;20832;-77
2022/12/27 03:35:17;;;;;;;10.80;5.73;;;2.40;99.90;;;;;;4988688;28;20423;-77
2022/12/27 03:38:04;;;;;;;8.73;5.70;;;2.50;99.90;;;;;;4969512;28;20802;-78
2022/12/27 03:43:42;;;;;;;13.80;4.63;;;2.70;99.90;;;;;;4984264;28;20454;-77
2022/12/27 03:46:33;;;;;;;11.90;4.93;;;2.70;99.90;;;;;;4988735;28;20788;-78
2022/12/27 03:49:14;;;;;;;15.90;5.77;;;2.70;99.90;;;;;;4982345;28;20528;-78
2022/12/27 03:51:47;;;;;;;11.27;5.00;;;2.70;99.90;;;;;;4987731;28;20819;-78
2022/12/27 03:54:39;;;;;;;15.07;5.30;;;2.70;99.90;;;;;;4989187;28;20432;-77
2022/12/27 03:57:10;;;;;;;13.23;5.43;;;2.70;99.90;;;;;;4982347;28;20446;-76
2022/12/27 03:59:36;;;;;;;16.33;5.80;;;2.70;99.90;;;;;;4979383;28;20428;-79
2022/12/27 04:02:02;;;;;;;18.30;5.33;;;2.80;99.90;;;;;;4993042;28;20555;-80
2022/12/27 04:04:27;;;;;;;14.67;5.17;;;2.90;99.90;;;;;;4989677;28;20472;-77
2022/12/27 04:06:53;;;;;;;9.00;4.83;;;2.90;99.90;;;;;;4984587;28;20172;-78
2022/12/27 04:36:44;;;;;;;12.63;6.47;;;3.00;99.90;;;;;;4986769;28;20517;-78
2022/12/27 04:39:10;;;;;;;13.57;5.63;;;2.90;99.90;;;;;;4989028;28;20494;-80
2022/12/27 04:55:22;;;;;;;13.90;5.70;;;2.60;99.90;;;;;;4974169;28;20434;-81
2022/12/27 04:57:48;;;;;;;12.10;6.23;;;2.60;99.90;;;;;;4989107;28;20435;-77
2022/12/27 05:03:08;;;;;;;12.17;6.67;;;2.70;99.90;;;;;;4988745;28;20518;-81
2022/12/27 05:05:35;;;;;;;13.70;6.40;;;2.70;99.90;;;;;;4992912;28;20426;-79
2022/12/27 05:16:16;;;;;;;12.20;5.50;;;3.00;99.90;;;;;;4975313;28;20427;-79
2022/12/27 05:18:42;;;;;;;9.60;4.07;;;3.20;99.90;;;;;;4991530;28;20431;-80
2022/12/27 05:21:08;;;;;;;16.40;4.57;;;3.40;99.90;;;;;;4991910;28;20697;-77
2022/12/27 05:26:24;;;;;;;4.60;3.17;;;3.50;99.90;;;;;;4988492;28;20168;-80
2022/12/27 05:28:52;;;;;;;8.70;4.13;;;3.60;99.90;;;;;;4969863;28;20431;-80
2022/12/27 05:31:18;;;;;;;10.70;4.50;;;3.60;99.90;;;;;;4987960;28;20453;-81
2022/12/27 05:33:44;;;;;;;10.13;3.23;;;3.50;99.90;;;;;;4988791;28;20422;-80
2022/12/27 05:36:10;;;;;;;9.80;4.43;;;3.40;99.90;;;;;;4986173;28;20772;-80
2022/12/27 05:38:35;;;;;;;9.83;4.30;;;3.30;99.90;;;;;;4987253;28;20560;-77
2022/12/27 05:41:02;;;;;;;12.30;5.30;;;3.10;99.90;;;;;;4976455;28;20204;-79
2022/12/27 05:43:28;;;;;;;9.57;4.10;;;3.00;99.90;;;;;;4987905;28;20207;-80
2022/12/27 05:45:54;;;;;;;10.40;4.80;;;3.00;99.90;;;;;;4988809;28;20431;-81
2022/12/27 05:48:21;;;;;;;11.77;3.60;;;3.00;99.90;;;;;;4985214;28;20443;-82
2022/12/27 05:50:47;;;;;;;7.00;3.73;;;3.00;99.90;;;;;;4990959;28;20459;-80
2022/12/27 05:53:13;;;;;;;10.23;4.33;;;3.00;99.90;;;;;;4988574;28;20478;-80
2022/12/27 05:55:39;;;;;;;13.33;5.07;;;3.00;99.90;;;;;;4986905;28;20433;-80
2022/12/27 05:58:05;;;;;;;10.37;4.83;;;3.00;99.90;;;;;;4990791;28;20176;-80
2022/12/27 06:00:31;;;;;;;10.40;5.10;;;3.00;99.90;;;;;;4989226;28;20463;-80
2022/12/27 06:02:56;;;;;;;12.07;5.43;;;2.90;99.90;;;;;;4988525;28;20285;-81
2022/12/27 06:05:22;;;;;;;14.73;5.07;;;2.90;99.90;;;;;;4988207;28;20961;-78
2022/12/27 06:07:48;;;;;;;9.80;4.90;;;2.90;99.90;;;;;;4964722;28;20623;-78
2022/12/27 06:10:13;;;;;;;11.10;4.40;;;2.80;99.90;;;;;;4982349;28;20278;-79
2022/12/27 06:12:39;;;;;;;16.10;5.27;;;2.90;99.90;;;;;;4987489;28;20206;-81
2022/12/27 06:15:05;;;;;;;8.37;3.23;;;2.90;99.90;;;;;;4973462;28;20226;-79
2022/12/27 06:17:31;;;;;;;10.40;5.40;;;2.90;99.90;;;;;;4987524;28;20620;-80
2022/12/27 06:19:57;;;;;;;7.87;3.53;;;2.90;99.90;;;;;;4986628;28;20528;-80
2022/12/27 06:22:22;;;;;;;14.37;4.73;;;2.90;99.90;;;;;;4983042;28;20188;-80
2022/12/27 06:24:48;;;;;;;9.20;4.13;;;2.90;99.90;;;;;;4990444;28;20170;-80
2022/12/27 06:27:13;;;;;;;15.00;5.20;;;2.90;99.90;;;;;;4992540;28;20179;-80
2022/12/27 06:29:39;;;;;;;8.60;4.20;;;2.90;99.90;;;;;;4989287;28;20210;-78
2022/12/27 06:32:05;;;;;;;14.33;5.47;;;2.90;99.90;;;;;;4990874;28;20606;-80
2022/12/27 06:34:31;;;;;;;10.27;4.13;;;2.70;99.90;;;;;;4991995;28;20685;-81
2022/12/27 06:36:56;;;;;;;20.43;5.43;;;2.70;99.90;;;;;;4996873;28;20438;-80
2022/12/27 06:39:22;;;;;;;12.23;5.23;;;2.70;99.90;;;;;;4990725;28;20447;-80
2022/12/27 06:41:49;;;;;;;12.93;5.77;;;2.70;99.90;;;;;;4996136;28;20706;-80
2022/12/27 06:44:15;;;;;;;12.60;4.50;;;2.70;99.90;;;;;;4993536;28;20690;-80
2022/12/27 06:46:40;;;;;;;13.80;4.87;;;2.80;99.90;;;;;;4998097;28;20454;-80
2022/12/27 06:49:06;;;;;;;10.27;4.27;;;2.80;99.90;;;;;;4987159;28;20167;-79
2022/12/27 06:51:32;;;;;;;14.30;5.70;;;2.80;99.90;;;;;;4991035;28;20218;-79
2022/12/27 06:53:58;;;;;;;14.33;5.33;;;2.80;99.90;;;;;;4997141;28;20184;-80
2022/12/27 06:56:24;;;;;;;19.73;5.63;;;2.80;99.90;;;;;;4986977;28;20846;-79
2022/12/27 06:58:50;;;;;;;13.00;6.00;;;2.80;99.90;;;;;;4989042;28;20176;-80
2022/12/27 07:01:21;;;;;;;16.60;5.93;;;2.80;99.90;;;;;;4987595;28;20589;-80
2022/12/27 07:03:51;;;;;;;16.00;7.10;;;2.70;99.90;;;;;;4992667;28;20434;-79
2022/12/27 07:06:17;;;;;;;15.40;6.90;;;2.80;99.90;;;;;;4987261;28;20431;-79
2022/12/27 07:08:43;;;;;;;17.73;7.23;;;2.80;99.90;;;;;;4985996;28;20443;-78
2022/12/27 07:11:11;;;;;;;17.90;7.23;;;2.70;99.90;;;;;;4986098;28;20450;-80
2022/12/27 07:13:39;;;;;;;12.67;6.90;;;2.70;99.90;;;;;;4981426;28;20644;-80
2022/12/27 07:16:09;;;;;;;13.33;6.70;;;2.70;99.90;;;;;;4992487;28;20898;-79
2022/12/27 07:18:35;;;;;;;14.70;7.33;;;2.70;99.90;;;;;;4982921;28;20517;-80
2022/12/27 07:21:10;;;;;;;14.73;7.97;;;2.60;99.90;;;;;;4972274;28;20538;-80
2022/12/27 07:23:36;;;;;;;19.97;6.90;;;2.60;99.90;;;;;;4989524;28;20438;-76
2022/12/27 07:26:07;;;;;;;13.43;7.33;;;2.60;99.90;;;;;;4991686;28;20435;-80
2022/12/27 07:28:33;;;;;;;13.10;7.83;;;2.50;99.90;;;;;;4988866;28;20661;-80
2022/12/27 07:30:59;;;;;;;16.70;8.53;;;2.50;99.90;;;;;;4988293;28;20466;-80
2022/12/27 07:33:25;;;;;;;18.27;8.77;;;2.50;99.90;;;;;;4968909;28;20439;-79
2022/12/27 07:35:59;;;;;;;20.80;6.83;;;2.50;99.90;;;;;;4988312;28;20438;-78
2022/12/27 07:38:25;;;;;;;11.97;8.13;;;2.40;99.90;;;;;;4984893;28;20687;-79
2022/12/27 07:40:50;;;;;;;22.00;8.87;;;2.50;99.90;;;;;;4978963;23;20497;-73
2022/12/27 07:43:16;;;;;;;18.50;7.30;;;2.40;99.90;;;;;;4979276;28;20179;-73
2022/12/27 07:45:41;;;;;;;14.30;8.00;;;2.40;99.90;;;;;;4986985;28;20172;-75
2022/12/27 07:48:07;;;;;;;25.73;6.70;;;2.40;99.90;;;;;;4984060;28;20175;-74
2022/12/27 07:50:33;;;;;;;13.23;7.83;;;2.40;99.90;;;;;;4985136;28;20192;-74
2022/12/27 07:52:58;;;;;;;19.77;7.87;;;2.40;99.90;;;;;;4980671;28;20179;-74
2022/12/27 07:55:24;;;;;;;23.80;8.23;;;2.50;99.90;;;;;;4977751;28;20185;-72
2022/12/27 07:57:49;;;;;;;23.47;7.17;;;2.50;99.90;;;;;;4977004;28;20195;-70
2022/12/27 08:00:15;;;;;;;11.93;6.50;;;2.50;99.90;;;;;;4978795;28;21046;-70
2022/12/27 08:02:42;;;;;;;17.33;6.63;;;2.60;99.90;;;;;;4974886;28;20705;-75
2022/12/27 08:05:08;;;;;;;18.00;6.80;;;2.60;99.90;;;;;;4978327;28;20502;-74
2022/12/27 08:07:35;;;;;;;13.80;6.10;;;2.60;99.90;;;;;;4975178;28;20473;-74
2022/12/27 08:10:01;;;;;;;13.53;6.30;;;2.60;99.90;;;;;;4980417;28;20589;-74
2022/12/27 08:12:26;;;;;;;20.47;6.97;;;2.60;99.90;;;;;;4977622;28;20518;-74
2022/12/27 08:14:52;;;;;;;17.17;6.67;;;2.60;99.90;;;;;;4984488;28;20230;-75
2022/12/27 08:17:23;;;;;;;12.90;5.00;;;2.60;99.90;;;;;;4976180;28;20187;-75
2022/12/27 08:19:52;;;;;;;8.60;5.23;;;2.60;99.90;;;;;;4978367;28;20175;-75
2022/12/27 08:22:18;;;;;;;12.67;5.53;;;2.60;99.90;;;;;;4982087;28;20470;-74
2022/12/27 08:24:43;;;;;;;14.87;6.40;;;2.50;99.90;;;;;;4983252;28;20425;-74
2022/12/27 08:27:10;;;;;;;15.30;5.73;;;2.50;99.90;;;;;;4980234;28;20172;-72
2022/12/27 08:29:36;;;;;;;11.27;4.97;;;2.60;99.90;;;;;;4980451;28;20172;-72
2022/12/27 08:32:02;;;;;;;13.00;4.80;;;2.60;99.90;;;;;;4970238;28;20469;-75
2022/12/27 08:34:28;;;;;;;11.70;4.90;;;2.70;99.90;;;;;;4976117;28;20959;-70
2022/12/27 08:36:53;;;;;;;12.70;5.40;;;2.70;99.90;;;;;;4980227;28;20450;-71
2022/12/27 08:39:19;;;;;;;7.93;4.87;;;2.80;99.90;;;;;;4980716;28;22029;-75
2022/12/27 08:41:45;;;;;;;14.83;6.43;;;2.80;99.90;;;;;;4978135;28;20231;-78
2022/12/27 08:44:11;;;;;;;11.20;5.80;;;2.90;99.90;;;;;;4976688;28;20236;-78
2022/12/27 08:46:37;;;;;;;11.90;5.27;;;3.00;99.90;;;;;;4979947;28;21013;-78
2022/12/27 08:49:04;;;;;;;20.60;6.60;;;3.00;99.90;;;;;;4977128;28;20486;-78
2022/12/27 08:51:30;;;;;;;12.20;5.90;;;3.10;99.90;;;;;;4982036;28;20470;-78
2022/12/27 08:53:56;;;;;;;18.83;6.50;;;3.20;99.90;;;;;;4975471;28;20440;-77
2022/12/27 08:56:21;;;;;;;11.17;6.57;;;3.30;99.90;;;;;;4978416;28;20814;-78
2022/12/27 08:58:50;;;;;;;11.97;7.30;;;3.40;99.90;;;;;;4982318;28;20180;-73
2022/12/27 09:01:16;;;;;;;11.87;6.53;;;3.50;99.90;;;;;;4978376;28;20279;-75
2022/12/27 09:03:42;;;;;;;12.30;5.60;;;3.50;99.90;;;;;;4976659;28;20431;-76
2022/12/27 09:06:10;;;;;;;15.33;5.30;;;3.50;99.90;;;;;;4981911;28;20502;-77
2022/12/27 09:08:36;;;;;;;16.95;7.60;;;3.50;99.90;;;;;;4991932;28;20441;-78
2022/12/27 09:11:09;;;;;;;19.43;6.00;;;3.50;99.90;;;;;;4981027;28;20203;-78
2022/12/27 09:13:35;;;;;;;13.90;6.43;;;3.50;99.90;;;;;;4975971;28;20204;-78
2022/12/27 09:16:09;;;;;;;14.50;7.53;;;3.50;99.90;;;;;;4977848;28;20544;-78
2022/12/27 09:18:38;;;;;;;14.37;5.67;;;3.50;99.90;;;;;;4979926;28;20426;-79
2022/12/27 09:21:10;;;;;;;11.53;5.70;;;3.50;99.90;;;;;;4985665;28;20807;-78
2022/12/27 09:23:36;;;;;;;14.53;6.80;;;3.50;99.90;;;;;;4987141;28;20794;-78
2022/12/27 09:26:07;;;;;;;14.30;6.77;;;3.60;99.90;;;;;;4979127;28;20933;-78
2022/12/27 09:28:34;;;;;;;13.33;6.37;;;3.50;99.90;;;;;;4975775;28;20445;-77
2022/12/27 09:31:00;;;;;;;12.30;6.70;;;3.60;99.90;;;;;;4997411;28;20493;-78
2022/12/27 09:33:27;;;;;;;15.63;6.60;;;3.60;99.90;;;;;;5023259;28;20433;-78
2022/12/27 09:35:52;;;;;;;11.40;5.23;;;3.60;99.90;;;;;;5022214;28;20943;-78
2022/12/27 09:38:18;;;;;;;12.83;5.43;;;3.60;99.90;;;;;;5014790;28;20434;-78
2022/12/27 09:40:55;;;;;;;11.30;5.83;;;3.50;99.90;;;;;;5022793;28;20210;-78
2022/12/27 09:43:38;;;;;;;8.00;4.90;;;3.50;99.90;;;;;;5029925;28;20178;-78
2022/12/27 09:46:09;;;;;;;11.17;5.70;;;3.60;99.90;;;;;;5020308;28;20487;-78
2022/12/27 09:48:38;;;;;;;10.10;4.63;;;3.60;99.90;;;;;;5022952;28;20434;-78
2022/12/27 09:51:16;;;;;;;14.30;5.27;;;3.60;99.90;;;;;;5026761;28;20462;-78
2022/12/27 09:53:54;;;;;;;9.43;4.43;;;3.70;99.90;;;;;;5026706;28;20424;-78
2022/12/27 09:56:25;;;;;;;12.87;5.70;;;3.80;99.90;;;;;;5025157;28;20437;-78
2022/12/27 09:58:53;;;;;;;8.63;4.53;;;3.80;99.90;;;;;;5020361;28;20436;-78
2022/12/27 10:01:27;;;;;;;11.10;5.47;;;3.80;99.90;;;;;;5026066;28;21294;-78
2022/12/27 10:03:54;;;;;;;13.13;5.03;;;3.90;99.90;;;;;;5018959;28;22143;-78
2022/12/27 10:06:46;;;;;;;6.50;4.60;;;3.90;99.90;;;;;;5022656;28;20447;-78
2022/12/27 10:09:44;;;;;;;13.20;5.10;;;4.00;99.90;;;;;;5023984;28;20190;-79
2022/12/27 10:12:32;;;;;;;13.87;5.77;;;4.00;99.90;;;;;;5022568;28;20438;-78
2022/12/27 10:15:27;;;;;;;19.63;5.43;;;4.00;99.90;;;;;;5020844;28;20808;-79
2022/12/27 10:18:19;;;;;;;14.57;4.73;;;4.10;99.90;;;;;;5020930;28;20429;-78
2022/12/27 10:20:44;;;;;;;10.03;4.37;;;4.20;99.90;;;;;;5033438;28;20444;-78
2022/12/27 10:23:14;;;;;;;10.70;5.17;;;4.30;99.90;;;;;;5019377;28;20531;-78
2022/12/27 10:25:40;;;;;;;12.80;5.00;;;4.30;99.90;;;;;;5025752;28;20686;-78
2022/12/27 10:28:21;;;;;;;7.23;4.27;;;4.40;99.90;;;;;;5034392;28;20476;-78
2022/12/27 10:30:47;;;;;;;11.90;4.83;;;4.50;99.90;;;;;;5025824;28;20209;-78
2022/12/27 10:33:19;;;;;;;20.43;4.73;;;4.50;99.90;;;;;;5033345;28;20424;-78
2022/12/27 10:35:47;;;;;;;12.00;4.90;;;4.50;99.90;;;;;;5020517;28;20638;-78
2022/12/27 10:38:13;;;;;;;16.33;4.93;;;4.60;99.90;;;;;;5022939;28;20428;-78
2022/12/27 10:40:55;;;;;;;17.70;5.00;;;4.60;99.90;;;;;;5026058;28;20556;-78
2022/12/27 10:43:30;;;;;;;7.80;4.80;;;4.60;99.90;;;;;;5026688;28;20428;-78
2022/12/27 10:46:11;;;;;;;13.80;5.80;;;4.60;99.90;;;;;;5027872;28;20439;-78
2022/12/27 10:48:36;;;;;;;22.77;5.90;;;4.70;99.90;;;;;;5021071;28;20433;-78
2022/12/27 10:51:08;;;;;;;15.60;6.23;;;4.70;99.90;;;;;;5047857;28;20506;-78
2022/12/27 10:53:56;;;;;;;16.23;5.73;;;4.80;99.90;;;;;;5018805;28;20257;-78
2022/12/27 10:56:26;;;;;;;6.87;4.07;;;4.90;99.90;;;;;;5023071;28;20941;-78
2022/12/27 10:58:54;;;;;;;11.77;5.20;;;4.90;99.90;;;;;;5020389;28;20417;-78
2022/12/27 11:01:23;;;;;;;18.87;5.60;;;5.00;99.90;;;;;;5028095;28;20470;-78
2022/12/27 11:03:49;;;;;;;12.10;5.50;;;5.00;99.90;;;;;;5032980;28;20432;-78
2022/12/27 11:06:25;;;;;;;13.00;6.10;;;5.00;99.90;;;;;;5020289;28;20433;-78
2022/12/27 11:08:52;;;;;;;9.80;4.70;;;5.10;99.90;;;;;;5022773;28;20908;-78
2022/12/27 11:11:24;;;;;;;12.70;4.90;;;5.20;99.90;;;;;;5022648;28;20457;-78
2022/12/27 11:13:51;;;;;;;16.97;4.30;;;5.20;99.90;;;;;;5024541;28;20422;-78
2022/12/27 11:16:33;;;;;;;24.63;5.20;;;5.30;99.90;;;;;;5030828;28;20443;-78
2022/12/27 11:19:00;;;;;;;11.07;4.83;;;5.40;99.90;;;;;;5025506;28;20437;-78
2022/12/27 11:21:27;;;;;;;8.33;3.43;;;5.40;99.90;;;;;;5040310;28;20469;-78
2022/12/27 11:23:57;;;;;;;9.97;4.40;;;5.50;99.90;;;;;;5027653;28;20432;-78
2022/12/27 11:26:26;;;;;;;15.77;4.20;;;5.70;99.90;;;;;;5035769;28;20421;-77
2022/12/27 11:29:00;;;;;;;7.17;4.30;;;5.70;99.90;;;;;;5024715;28;20418;-78
2022/12/27 11:31:36;;;;;;;10.30;4.30;;;5.70;99.90;;;;;;5023919;28;20460;-78
2022/12/27 11:34:29;;;;;;;10.00;3.80;;;5.70;99.90;;;;;;5031664;28;20452;-78
2022/12/27 11:37:04;;;;;;;10.83;4.13;;;5.70;99.90;;;;;;5017702;28;20449;-78
2022/12/27 11:39:45;;;;;;;6.53;3.97;;;5.70;99.80;;;;;;5017041;28;20424;-78
2022/12/27 11:42:37;;;;;;;8.30;4.47;;;5.80;99.90;;;;;;5029783;28;20467;-78
2022/12/27 11:45:17;;;;;;;15.90;4.20;;;5.80;99.70;;;;;;5022722;28;20882;-78
2022/12/27 11:47:52;;;;;;;15.17;4.17;;;5.90;99.70;;;;;;5019041;28;20429;-78
2022/12/27 11:50:27;;;;;;;10.43;4.40;;;6.00;99.20;;;;;;5028131;28;20494;-78
2022/12/27 11:53:11;;;;;;;11.47;4.30;;;6.20;98.90;;;;;;5027558;28;20428;-78
2022/12/27 11:56:11;;;;;;;10.90;3.50;;;6.30;98.80;;;;;;5030168;28;20799;-78
2022/12/27 11:58:54;;;;;;;9.10;4.87;;;6.30;98.40;;;;;;5019576;28;20511;-77
2022/12/27 12:01:34;;;;;;;13.50;3.87;;;6.40;98.60;;;;;;5038201;28;20503;-78
2022/12/27 12:04:23;;;;;;;14.23;4.90;;;6.30;97.50;;;;;;5022708;28;20753;-77
2022/12/27 12:07:12;;;;;;;13.90;4.00;;;6.30;98.20;;;;;;5025576;28;20478;-77
2022/12/27 12:10:02;;;;;;;17.30;4.93;;;6.30;98.30;;;;;;5033462;28;20523;-78
2022/12/27 12:12:39;;;;;;;18.50;4.03;;;6.40;98.10;;;;;;5027261;28;20477;-78
2022/12/27 12:15:37;;;;;;;9.57;4.83;;;6.30;98.20;;;;;;5017895;28;20413;-78
2022/12/27 12:18:27;;;;;;;11.13;4.27;;;6.20;98.00;;;;;;5016572;28;20429;-77
2022/12/27 12:21:02;;;;;;;14.07;4.53;;;6.30;97.80;;;;;;5027440;28;20855;-78
2022/12/27 12:23:58;;;;;;;20.80;4.90;;;6.30;98.20;;;;;;5026835;28;20439;-77
2022/12/27 12:26:25;;;;;;;8.50;3.77;;;6.30;98.10;;;;;;5017526;28;20436;-75
2022/12/27 12:29:15;;;;;;;12.73;4.50;;;6.40;98.30;;;;;;5018048;28;20933;-77
2022/12/27 12:31:59;;;;;;;11.37;3.80;;;6.40;97.60;;;;;;5023617;28;20452;-78
2022/12/27 12:34:27;;;;;;;8.60;3.60;;;6.40;97.10;;;;;;5022334;28;20430;-78
2022/12/27 12:37:16;;;;;;;9.33;3.43;;;6.30;97.20;;;;;;5022831;28;20441;-78
2022/12/27 12:40:24;;;;;;;7.37;3.80;;;6.30;96.70;;;;;;5024643;28;20448;-78
2022/12/27 12:43:09;;;;;;;11.20;3.87;;;6.30;97.00;;;;;;5019871;28;20523;-78
2022/12/27 12:45:49;;;;;;;10.03;3.20;;;6.40;97.30;;;;;;5019298;28;20921;-78
2022/12/27 12:49:09;;;;;;;12.83;3.67;;;6.40;97.40;;;;;;5018062;28;20439;-78
2022/12/27 12:51:53;;;;;;;18.03;4.13;;;6.40;97.30;;;;;;5018170;28;20460;-78
2022/12/27 12:54:38;;;;;;;13.33;3.40;;;6.40;97.00;;;;;;5023129;28;20518;-78
2022/12/27 12:57:45;;;;;;;9.73;3.10;;;6.40;96.60;;;;;;5015399;28;21193;-80
2022/12/27 13:00:45;;;;;;;18.27;3.87;;;6.30;96.90;;;;;;5015146;28;20991;-78
2022/12/27 13:03:42;;;;;;;9.20;3.80;;;6.30;97.00;;;;;;5025265;28;20487;-77
2022/12/27 13:06:42;;;;;;;9.90;3.43;;;6.30;97.00;;;;;;5034901;28;20449;-78
2022/12/27 13:09:31;;;;;;;7.43;2.73;;;6.30;97.20;;;;;;5024319;28;20806;-77
2022/12/27 13:12:15;;;;;;;12.27;3.10;;;6.30;97.10;;;;;;5018507;28;20798;-77
2022/12/27 13:14:50;;;;;;;9.73;3.57;;;6.40;97.50;;;;;;5017626;28;20425;-77
2022/12/27 13:17:32;;;;;;;11.40;3.10;;;6.40;97.20;;;;;;5019039;28;20502;-78
2022/12/27 13:20:05;;;;;;;3.93;2.60;;;6.50;97.80;;;;;;5023706;28;20516;-74
2022/12/27 13:23:02;;;;;;;12.30;3.27;;;6.60;96.90;;;;;;5027011;28;20465;-72
2022/12/27 13:25:44;;;;;;;9.27;3.53;;;6.50;96.80;;;;;;5017981;28;20444;-72
2022/12/27 13:28:45;;;;;;;10.17;3.60;;;6.50;96.90;;;;;;5021596;28;20433;-72
2022/12/27 13:31:53;;;;;;;9.73;3.20;;;6.40;97.30;;;;;;5021384;28;20453;-73
2022/12/27 13:34:27;;;;;;;12.43;3.90;;;6.50;97.00;;;;;;5025853;28;20437;-77
2022/12/27 13:37:10;;;;;;;8.00;3.63;;;6.30;97.00;;;;;;5026145;28;20612;-76
2022/12/27 13:39:47;;;;;;;15.57;4.77;;;6.20;97.20;;;;;;5020933;28;20436;-76
2022/12/27 13:42:32;;;;;;;11.57;3.90;;;6.20;98.00;;;;;;5048739;22;20521;-69
2022/12/27 13:45:27;;;;;;;12.80;4.17;;;6.20;97.60;;;;;;4999126;28;20546;-69
2022/12/27 13:48:31;;;;;;;13.40;4.77;;;6.20;97.90;;;;;;5018868;28;20457;-69
2022/12/27 13:50:59;;;;;;;5.40;3.70;;;6.10;97.70;;;;;;4993490;28;20461;-68
2022/12/27 13:53:43;;;;;;;10.40;4.40;;;6.10;97.80;;;;;;5007203;28;20434;-70
2022/12/27 13:56:34;;;;;;;7.70;3.93;;;6.00;97.90;;;;;;5005963;28;20427;-70
2022/12/27 13:59:41;;;;;;;10.03;4.13;;;6.00;98.10;;;;;;5002073;28;20420;-69
2022/12/27 14:02:31;;;;;;;9.67;3.87;;;6.00;98.20;;;;;;4984387;28;20504;-69
2022/12/27 14:05:00;;;;;;;7.73;3.63;;;5.90;98.30;;;;;;4998325;28;20426;-69
2022/12/27 14:07:35;;;;;;;12.57;5.17;;;5.90;98.50;;;;;;4997855;28;20899;-69
2022/12/27 14:10:25;;;;;;;12.10;4.70;;;5.90;98.40;;;;;;5022112;28;20821;-69
2022/12/27 14:13:06;;;;;;;7.87;5.03;;;6.00;98.30;;;;;;5013652;28;21013;-69
2022/12/27 14:15:41;;;;;;;8.13;4.17;;;5.90;98.50;;;;;;4981750;28;20508;-69
2022/12/27 14:18:37;;;;;;;7.20;4.90;;;5.90;98.30;;;;;;4996261;28;20434;-69
2022/12/27 14:21:24;;;;;;;8.90;4.07;;;5.80;98.30;;;;;;5005254;28;20837;-70
2022/12/27 14:24:16;;;;;;;10.37;5.70;;;5.80;98.80;;;;;;5009953;28;20449;-69
2022/12/27 14:27:20;;;;;;;9.70;5.40;;;5.70;98.90;;;;;;5001381;28;20426;-69
2022/12/27 14:30:01;;;;;;;12.63;5.73;;;5.60;99.00;;;;;;4960180;28;20481;-70
2022/12/27 14:32:45;;;;;;;9.53;6.40;;;5.50;99.30;;;;;;5013160;28;20445;-69
2022/12/27 14:35:26;;;;;;;12.20;6.50;;;5.40;99.40;;;;;;5007200;28;21050;-70
2022/12/27 14:38:10;;;;;;;10.93;7.90;;;5.30;99.50;;;;;;5005937;28;20430;-69
2022/12/27 14:41:04;;;;;;;17.90;7.13;;;5.20;99.80;;;;;;5003366;28;20851;-71
2022/12/27 14:43:45;;;;;;;9.80;6.57;;;5.20;99.90;;;;;;5005526;28;20472;-68
2022/12/27 14:46:46;;;;;;;14.60;7.77;;;5.20;99.90;;;;;;5007923;28;20542;-69
2022/12/27 14:49:37;;;;;;;11.73;7.63;;;5.10;99.90;;;;;;5010456;28;20417;-69
2022/12/27 14:52:39;;;;;;;13.23;9.07;;;5.00;99.90;;;;;;5004101;28;20505;-69
2022/12/27 14:55:26;;;;;;;14.07;7.00;;;5.00;99.90;;;;;;5010207;28;20440;-69
2022/12/27 14:58:08;;;;;;;14.57;8.57;;;5.00;99.90;;;;;;4993504;28;20433;-70